createdAt,value
2019-01-14T00:00:07.555Z,0.70
2019-01-14T00:02:36.484Z,0.80
2019-01-14T00:05:06.899Z,0.50
2019-01-14T00:07:35.727Z,0.70
2019-01-14T00:10:06.261Z,0.97
2019-01-14T00:12:36.453Z,0.73
2019-01-14T00:15:08.739Z,0.80
2019-01-14T00:17:37.181Z,1.00
2019-01-14T00:20:09.148Z,0.93
2019-01-14T00:22:37.774Z,0.87
2019-01-14T00:25:06.549Z,1.40
2019-01-14T00:27:35.132Z,1.10
2019-01-14T00:30:07.130Z,1.00
2019-01-14T00:32:36.074Z,1.10
2019-01-14T00:35:05.196Z,1.37
2019-01-14T00:37:34.153Z,1.30
2019-01-14T00:40:04.303Z,1.27
2019-01-14T00:42:33.040Z,1.40
2019-01-14T00:45:01.480Z,1.37
2019-01-14T00:47:30.523Z,0.87
2019-01-14T00:49:59.480Z,1.07
2019-01-14T00:52:28.012Z,1.20
2019-01-14T00:54:56.945Z,1.03
2019-01-14T00:57:25.906Z,1.27
2019-01-14T00:59:54.827Z,1.17
2019-01-14T01:02:23.559Z,1.27
2019-01-14T01:04:52.416Z,1.10
2019-01-14T01:07:20.881Z,1.30
2019-01-14T01:09:49.822Z,1.37
2019-01-14T01:12:18.295Z,1.23
2019-01-14T01:14:46.804Z,1.30
2019-01-14T01:17:15.253Z,1.50
2019-01-14T01:19:43.685Z,1.20
2019-01-14T01:22:12.107Z,1.50
2019-01-14T01:24:40.528Z,1.47
2019-01-14T01:27:08.979Z,1.50
2019-01-14T01:29:37.415Z,1.83
2019-01-14T01:32:05.849Z,1.67
2019-01-14T01:34:37.061Z,1.77
2019-01-14T01:37:05.481Z,1.27
2019-01-14T01:39:33.925Z,1.40
2019-01-14T01:42:02.450Z,1.30
2019-01-14T01:44:30.877Z,1.60
2019-01-14T01:46:59.353Z,1.20
2019-01-14T01:49:27.784Z,1.57
2019-01-14T01:51:56.223Z,0.87
2019-01-14T01:54:24.721Z,1.17
2019-01-14T01:56:53.161Z,1.10
2019-01-14T01:59:21.638Z,1.30
2019-01-14T02:01:50.323Z,1.10
2019-01-14T02:04:18.761Z,1.10
2019-01-14T02:06:47.190Z,1.23
2019-01-14T02:09:15.646Z,1.20
2019-01-14T02:11:44.099Z,1.27
2019-01-14T02:14:12.703Z,1.00
2019-01-14T02:16:41.618Z,1.13
2019-01-14T02:19:10.113Z,1.43
2019-01-14T02:21:38.616Z,1.30
2019-01-14T02:24:07.070Z,1.67
2019-01-14T02:26:35.502Z,1.30
2019-01-14T02:29:04.523Z,1.20
2019-01-14T02:31:32.975Z,1.30
2019-01-14T02:34:01.407Z,1.10
2019-01-14T02:36:29.842Z,1.33
2019-01-14T02:38:58.306Z,1.60
2019-01-14T02:41:26.727Z,1.30
2019-01-14T02:43:55.160Z,1.20
2019-01-14T02:46:23.593Z,1.20
2019-01-14T02:48:52.009Z,1.90
2019-01-14T02:51:20.478Z,1.30
2019-01-14T02:53:48.879Z,1.50
2019-01-14T02:56:17.333Z,1.50
2019-01-14T02:58:45.804Z,1.07
2019-01-14T03:01:14.255Z,1.60
2019-01-14T03:03:42.715Z,1.23
2019-01-14T03:06:11.134Z,1.20
2019-01-14T03:08:39.599Z,1.43
2019-01-14T03:11:08.007Z,1.23
2019-01-14T03:13:36.454Z,1.53
2019-01-14T03:16:04.929Z,1.33
2019-01-14T03:18:33.335Z,1.40
2019-01-14T03:21:01.769Z,1.20
2019-01-14T03:23:30.221Z,1.60
2019-01-14T03:25:58.659Z,1.37
2019-01-14T03:28:27.076Z,1.40
2019-01-14T03:30:55.526Z,1.93
2019-01-14T03:33:23.960Z,1.60
2019-01-14T03:35:52.362Z,1.70
2019-01-14T03:38:20.876Z,1.40
2019-01-14T03:40:49.294Z,1.43
2019-01-14T03:43:17.740Z,1.50
2019-01-14T03:45:46.163Z,1.27
2019-01-14T03:48:14.601Z,1.40
2019-01-14T03:50:43.034Z,1.80
2019-01-14T03:53:11.512Z,0.80
2019-01-14T03:55:39.934Z,1.57
2019-01-14T03:58:08.377Z,1.30
2019-01-14T04:00:36.829Z,1.20
2019-01-14T04:03:05.265Z,1.00
2019-01-14T04:05:33.667Z,1.63
2019-01-14T04:08:02.110Z,1.37
2019-01-14T04:10:30.528Z,1.53
2019-01-14T04:12:59.052Z,1.50
2019-01-14T04:15:27.491Z,1.70
2019-01-14T04:17:55.914Z,1.50
2019-01-14T04:20:24.351Z,1.30
2019-01-14T04:22:52.793Z,1.73
2019-01-14T04:25:21.205Z,1.60
2019-01-14T04:27:49.663Z,1.60
2019-01-14T04:30:20.240Z,1.50
2019-01-14T04:32:48.938Z,1.50
2019-01-14T04:35:18.397Z,1.53
2019-01-14T04:37:46.901Z,1.47
2019-01-14T04:40:15.874Z,1.40
2019-01-14T04:42:44.507Z,2.10
2019-01-14T04:45:14.758Z,1.60
2019-01-14T04:47:43.268Z,1.43
2019-01-14T04:50:17.132Z,1.90
2019-01-14T04:52:45.564Z,1.57
2019-01-14T04:55:14.061Z,1.63
2019-01-14T04:57:42.494Z,1.53
2019-01-14T05:00:16.288Z,1.80
2019-01-14T05:02:44.800Z,1.50
2019-01-14T05:05:13.470Z,1.67
2019-01-14T05:07:41.987Z,1.07
2019-01-14T05:10:13.844Z,1.80
2019-01-14T05:12:42.304Z,1.60
2019-01-14T05:15:12.243Z,1.87
2019-01-14T05:17:40.689Z,1.60
2019-01-14T05:20:19.994Z,1.60
2019-01-14T05:22:48.435Z,1.67
2019-01-14T05:25:16.926Z,1.50
2019-01-14T05:27:45.368Z,1.60
2019-01-14T05:30:16.314Z,1.67
2019-01-14T05:32:44.795Z,1.40
2019-01-14T05:35:13.670Z,1.90
2019-01-14T05:37:42.141Z,1.60
2019-01-14T05:40:24.632Z,1.40
2019-01-14T05:42:53.105Z,2.00
2019-01-14T05:45:21.539Z,1.57
2019-01-14T05:47:49.972Z,1.83
2019-01-14T05:50:18.570Z,1.97
2019-01-14T05:52:46.992Z,1.50
2019-01-14T05:55:16.194Z,1.87
2019-01-14T05:57:44.922Z,1.90
2019-01-14T06:00:19.006Z,1.33
2019-01-14T06:02:47.429Z,1.47
2019-01-14T06:05:15.869Z,1.70
2019-01-14T06:07:44.971Z,1.70
2019-01-14T06:10:13.878Z,1.53
2019-01-14T06:12:42.768Z,1.47
2019-01-14T06:15:13.713Z,1.33
2019-01-14T06:17:42.234Z,1.53
2019-01-14T06:20:13.805Z,1.70
2019-01-14T06:22:48.111Z,1.77
2019-01-14T06:25:16.661Z,1.13
2019-01-14T06:27:45.094Z,1.77
2019-01-14T06:30:22.688Z,1.50
2019-01-14T06:32:51.206Z,1.57
2019-01-14T06:35:19.784Z,1.70
2019-01-14T06:37:52.322Z,1.87
2019-01-14T06:40:20.070Z,1.50
2019-01-14T06:42:48.740Z,1.50
2019-01-14T06:45:17.422Z,1.63
2019-01-14T06:47:46.086Z,1.80
2019-01-14T06:50:16.555Z,1.57
2019-01-14T06:52:44.966Z,1.60
2019-01-14T06:55:13.678Z,1.70
2019-01-14T06:57:43.048Z,1.40
2019-01-14T07:00:16.848Z,1.50
2019-01-14T07:02:45.415Z,1.73
2019-01-14T07:05:14.189Z,1.40
2019-01-14T07:07:42.674Z,1.83
2019-01-14T07:10:23.150Z,1.60
2019-01-14T07:12:51.578Z,1.73
2019-01-14T07:15:20.053Z,1.50
2019-01-14T07:17:48.570Z,1.80
2019-01-14T07:20:17.731Z,1.80
2019-01-14T07:22:46.225Z,1.80
2019-01-14T07:25:14.708Z,1.70
2019-01-14T07:27:43.236Z,1.67
2019-01-14T07:30:14.712Z,2.07
2019-01-14T07:32:43.231Z,1.73
2019-01-14T07:35:11.996Z,1.87
2019-01-14T07:37:40.769Z,1.40
2019-01-14T07:40:12.096Z,2.07
2019-01-14T07:42:41.205Z,1.80
2019-01-14T07:45:12.561Z,1.57
2019-01-14T07:47:41.276Z,2.17
2019-01-14T07:50:15.278Z,2.50
2019-01-14T07:52:44.529Z,1.77
2019-01-14T07:55:13.378Z,1.67
2019-01-14T07:57:42.182Z,1.30
2019-01-14T08:00:21.951Z,2.00
2019-01-14T08:02:50.725Z,1.70
2019-01-14T08:05:19.429Z,2.50
2019-01-14T08:07:48.788Z,1.80
2019-01-14T08:10:17.736Z,2.37
2019-01-14T08:12:46.386Z,2.17
2019-01-14T08:15:18.275Z,3.30
2019-01-14T08:17:47.068Z,2.00
2019-01-14T08:20:15.999Z,1.90
2019-01-14T08:22:46.411Z,2.40
2019-01-14T08:25:15.638Z,2.07
2019-01-14T08:27:44.626Z,2.10
2019-01-14T08:30:17.145Z,2.47
2019-01-14T08:32:45.858Z,1.70
2019-01-14T08:35:14.596Z,1.50
2019-01-14T08:37:44.432Z,1.70
2019-01-14T08:40:15.432Z,1.77
2019-01-14T08:42:44.222Z,2.03
2019-01-14T08:45:16.273Z,1.40
2019-01-14T08:47:45.224Z,1.93
2019-01-14T08:50:16.072Z,1.83
2019-01-14T08:52:44.748Z,1.73
2019-01-14T08:55:13.544Z,1.97
2019-01-14T08:57:42.346Z,2.47
2019-01-14T09:00:18.920Z,2.63
2019-01-14T09:02:47.764Z,1.20
2019-01-14T09:05:16.744Z,1.47
2019-01-14T09:07:45.534Z,2.10
2019-01-14T09:10:19.943Z,1.80
2019-01-14T09:12:48.845Z,1.90
2019-01-14T09:15:18.702Z,1.67
2019-01-14T09:17:47.919Z,2.03
2019-01-14T09:20:21.216Z,2.00
2019-01-14T09:22:50.483Z,1.73
2019-01-14T09:25:19.432Z,1.90
2019-01-14T09:27:48.198Z,1.83
2019-01-14T09:30:19.975Z,1.90
2019-01-14T09:32:48.640Z,1.60
2019-01-14T09:35:20.112Z,1.80
2019-01-14T09:37:48.899Z,1.70
2019-01-14T09:40:21.861Z,2.17
2019-01-14T09:42:50.440Z,2.03
2019-01-14T09:45:19.289Z,2.10
2019-01-14T09:47:48.228Z,2.23
2019-01-14T09:50:17.083Z,1.80
2019-01-14T09:52:45.909Z,2.00
2019-01-14T09:55:17.214Z,1.67
2019-01-14T09:57:46.300Z,1.90
2019-01-14T10:00:15.407Z,2.30
2019-01-14T10:02:44.559Z,2.10
2019-01-14T10:05:16.057Z,2.07
2019-01-14T10:07:44.934Z,1.93
2019-01-14T10:10:15.759Z,1.97
2019-01-14T10:12:44.861Z,2.07
2019-01-14T10:15:19.470Z,2.43
2019-01-14T10:17:49.965Z,2.40
2019-01-14T10:20:18.903Z,2.30
2019-01-14T10:22:47.791Z,3.10
2019-01-14T10:25:16.643Z,2.83
2019-01-14T10:27:45.522Z,2.90
2019-01-14T10:30:18.737Z,3.60
2019-01-14T10:32:47.615Z,2.17
2019-01-14T10:35:16.752Z,3.87
2019-01-14T10:37:45.894Z,2.53
2019-01-14T10:40:17.928Z,2.93
2019-01-14T10:42:46.609Z,3.17
2019-01-14T10:45:22.510Z,2.57
2019-01-14T10:47:51.165Z,2.37
2019-01-14T10:50:20.146Z,2.60
2019-01-14T10:52:49.288Z,2.17
2019-01-14T10:55:18.633Z,2.53
2019-01-14T10:57:47.754Z,2.87
2019-01-14T11:00:19.365Z,2.30
2019-01-14T11:02:48.547Z,2.10
2019-01-14T11:05:22.166Z,2.67
2019-01-14T11:07:50.922Z,2.13
2019-01-14T11:10:19.846Z,2.10
2019-01-14T11:12:48.835Z,2.30
2019-01-14T11:15:19.992Z,1.60
2019-01-14T11:17:52.156Z,2.60
2019-01-14T11:20:24.000Z,2.57
2019-01-14T11:22:54.395Z,2.90
2019-01-14T11:25:23.911Z,2.77
2019-01-14T11:27:52.696Z,2.33
2019-01-14T11:30:26.902Z,3.07
2019-01-14T11:32:55.670Z,2.70
2019-01-14T11:35:26.114Z,3.40
2019-01-14T11:37:55.077Z,2.57
2019-01-14T11:40:26.513Z,2.40
2019-01-14T11:42:55.184Z,2.87
2019-01-14T11:45:24.940Z,2.30
2019-01-14T11:47:53.911Z,2.40
2019-01-14T11:50:22.827Z,2.03
2019-01-14T11:52:51.796Z,3.07
2019-01-14T11:55:20.661Z,2.60
2019-01-14T11:57:49.577Z,2.93
2019-01-14T12:00:21.807Z,2.20
2019-01-14T12:02:50.725Z,2.53
2019-01-14T12:05:19.419Z,2.73
2019-01-14T12:07:48.086Z,2.20
2019-01-14T12:10:17.106Z,2.67
2019-01-14T12:12:46.056Z,2.80
2019-01-14T12:15:20.558Z,3.43
2019-01-14T12:17:49.611Z,2.50
2019-01-14T12:20:18.517Z,2.23
2019-01-14T12:22:47.621Z,3.27
2019-01-14T12:25:16.783Z,2.73
2019-01-14T12:27:45.326Z,2.83
2019-01-14T12:30:17.365Z,4.20
2019-01-14T12:32:45.945Z,2.70
2019-01-14T12:35:14.342Z,3.80
2019-01-14T12:37:43.303Z,3.13
2019-01-14T12:40:12.897Z,2.50
2019-01-14T12:42:41.619Z,2.73
2019-01-14T12:45:13.169Z,2.70
2019-01-14T12:47:41.922Z,3.40
2019-01-14T12:50:15.704Z,1.97
2019-01-14T12:52:44.358Z,2.40
2019-01-14T12:55:15.446Z,2.83
2019-01-14T12:57:44.060Z,2.33
2019-01-14T13:00:23.891Z,2.50
2019-01-14T13:02:52.852Z,2.10
2019-01-14T13:05:22.843Z,2.30
2019-01-14T13:07:53.405Z,1.90
2019-01-14T13:10:22.246Z,2.03
2019-01-14T13:12:50.818Z,1.40
2019-01-14T13:15:22.042Z,2.37
2019-01-14T13:17:50.642Z,2.10
2019-01-14T13:20:20.943Z,1.93
2019-01-14T13:22:49.934Z,2.37
2019-01-14T13:25:18.790Z,2.43
2019-01-14T13:27:47.803Z,1.90
2019-01-14T13:30:19.099Z,1.40
2019-01-14T13:32:47.959Z,1.27
2019-01-14T13:35:17.020Z,0.77
2019-01-14T13:37:46.383Z,1.10
2019-01-14T13:40:15.393Z,0.77
2019-01-14T13:42:44.209Z,1.63
2019-01-14T13:45:23.028Z,1.00
2019-01-14T13:47:51.975Z,0.70
2019-01-14T13:50:22.479Z,1.33
2019-01-14T13:52:51.056Z,0.87
2019-01-14T13:55:22.119Z,1.30
2019-01-14T13:57:52.278Z,1.20
2019-01-14T14:00:22.594Z,1.13
2019-01-14T14:02:51.237Z,1.10
2019-01-14T14:05:19.766Z,1.00
2019-01-14T14:07:48.260Z,0.90
2019-01-14T14:10:22.100Z,0.90
2019-01-14T14:12:50.937Z,1.10
2019-01-14T14:15:19.918Z,0.83
2019-01-14T14:17:48.418Z,1.10
2019-01-14T14:20:18.267Z,1.30
2019-01-14T14:22:47.024Z,1.00
2019-01-14T14:25:15.568Z,1.27
2019-01-14T14:27:45.048Z,1.30
2019-01-14T14:30:31.346Z,1.00
2019-01-14T14:33:00.134Z,1.20
2019-01-14T14:35:28.691Z,1.10
2019-01-14T14:38:01.237Z,1.10
2019-01-14T14:40:27.971Z,1.20
2019-01-14T14:42:56.557Z,0.97
2019-01-14T14:45:25.913Z,1.20
2019-01-14T14:47:54.577Z,1.93
2019-01-14T14:50:23.169Z,1.17
2019-01-14T14:52:51.761Z,1.40
2019-01-14T14:55:20.446Z,1.70
2019-01-14T14:57:49.565Z,1.50
2019-01-14T15:00:22.466Z,1.20
2019-01-14T15:02:51.289Z,1.30
2019-01-14T15:05:20.068Z,2.50
2019-01-14T15:07:48.688Z,1.53
2019-01-14T15:10:21.007Z,1.67
2019-01-14T15:12:49.649Z,2.07
2019-01-14T15:15:19.875Z,1.10
2019-01-14T15:17:48.428Z,1.40
2019-01-14T15:20:19.055Z,1.30
2019-01-14T15:22:47.919Z,1.77
2019-01-14T15:25:16.775Z,1.50
2019-01-14T15:27:45.437Z,1.40
2019-01-14T15:30:17.285Z,1.70
2019-01-14T15:32:45.879Z,1.60
2019-01-14T15:35:14.560Z,1.60
2019-01-14T15:37:43.041Z,1.50
2019-01-14T15:40:14.514Z,1.23
2019-01-14T15:42:43.101Z,1.80
2019-01-14T15:45:14.291Z,1.90
2019-01-14T15:47:43.736Z,1.80
2019-01-14T15:50:12.869Z,2.00
2019-01-14T15:52:42.983Z,1.70
2019-01-14T15:55:20.260Z,1.57
2019-01-14T15:57:48.965Z,1.50
2019-01-14T16:00:18.821Z,1.60
2019-01-14T16:02:47.411Z,1.30
2019-01-14T16:05:17.213Z,1.27
2019-01-14T16:07:45.957Z,1.73
2019-01-14T16:10:17.927Z,1.63
2019-01-14T16:12:46.799Z,1.97
2019-01-14T16:15:15.879Z,2.10
2019-01-14T16:17:44.978Z,1.50
2019-01-14T16:20:17.176Z,1.40
2019-01-14T16:22:45.988Z,1.43
2019-01-14T16:25:14.670Z,1.97
2019-01-14T16:27:43.153Z,1.63
2019-01-14T16:30:14.338Z,1.97
2019-01-14T16:32:42.788Z,1.93
2019-01-14T16:35:11.449Z,1.70
2019-01-14T16:37:40.017Z,1.70
2019-01-14T16:40:08.772Z,1.70
2019-01-14T16:42:37.193Z,1.70
2019-01-14T16:45:14.496Z,1.80
2019-01-14T16:47:42.947Z,1.57
2019-01-14T16:50:14.538Z,1.70
2019-01-14T16:52:42.976Z,1.83
2019-01-14T16:55:12.989Z,1.90
2019-01-14T16:57:41.421Z,2.10
2019-01-14T17:00:15.405Z,2.47
2019-01-14T17:02:43.841Z,2.30
2019-01-14T17:05:13.574Z,2.00
2019-01-14T17:07:42.373Z,2.40
2019-01-14T17:10:13.468Z,1.90
2019-01-14T17:12:42.141Z,2.03
2019-01-14T17:15:10.977Z,1.73
2019-01-14T17:17:39.411Z,1.97
2019-01-14T17:20:11.125Z,1.80
2019-01-14T17:22:39.557Z,1.90
2019-01-14T17:25:08.229Z,1.70
2019-01-14T17:27:36.650Z,1.93
2019-01-14T17:30:08.150Z,1.73
2019-01-14T17:32:36.670Z,1.50
2019-01-14T17:35:06.570Z,1.53
2019-01-14T17:37:35.120Z,1.43
2019-01-14T17:40:06.438Z,1.50
2019-01-14T17:42:34.947Z,1.80
2019-01-14T17:45:04.417Z,1.60
2019-01-14T17:47:32.861Z,1.63
2019-01-14T17:50:01.346Z,2.13
2019-01-14T17:52:29.849Z,1.50
2019-01-14T17:54:58.277Z,2.10
2019-01-14T17:57:26.725Z,1.67
2019-01-14T17:59:55.149Z,2.00
2019-01-14T18:02:23.631Z,1.73
2019-01-14T18:04:52.067Z,1.60
2019-01-14T18:07:21.053Z,1.50
2019-01-14T18:09:50.229Z,1.80
2019-01-14T18:12:18.744Z,1.67
2019-01-14T18:14:47.205Z,2.03
2019-01-14T18:17:15.780Z,2.00
2019-01-14T18:19:44.238Z,2.10
2019-01-14T18:22:12.736Z,2.20
2019-01-14T18:24:41.179Z,1.90
2019-01-14T18:27:09.617Z,1.90
2019-01-14T18:29:38.040Z,1.73
2019-01-14T18:32:13.401Z,1.60
2019-01-14T18:34:41.824Z,1.63
2019-01-14T18:37:10.277Z,1.73
2019-01-14T18:39:38.732Z,2.00
2019-01-14T18:42:09.195Z,1.77
2019-01-14T18:44:38.157Z,1.60
2019-01-14T18:47:07.113Z,1.63
2019-01-14T18:49:35.845Z,1.60
2019-01-14T18:52:04.871Z,1.50
2019-01-14T18:54:35.314Z,1.60
2019-01-14T18:57:06.297Z,1.30
2019-01-14T18:59:37.691Z,1.63
2019-01-14T19:02:08.402Z,1.80
2019-01-14T19:04:36.859Z,1.80
2019-01-14T19:07:05.563Z,1.30
2019-01-14T19:09:34.290Z,1.90
2019-01-14T19:12:03.307Z,1.90
2019-01-14T19:14:31.912Z,1.60
2019-01-14T19:17:01.198Z,1.63
2019-01-14T19:19:30.057Z,1.70
2019-01-14T19:21:58.525Z,1.40
2019-01-14T19:24:27.501Z,1.47
2019-01-14T19:26:56.367Z,1.83
2019-01-14T19:29:25.224Z,1.50
2019-01-14T19:31:53.672Z,1.70
2019-01-14T19:34:22.106Z,1.70
2019-01-14T19:36:50.859Z,1.80
2019-01-14T19:39:19.839Z,1.70
2019-01-14T19:41:48.289Z,2.00
2019-01-14T19:44:17.245Z,1.70
2019-01-14T19:46:45.809Z,1.93
2019-01-14T19:49:16.176Z,1.97
2019-01-14T19:51:45.922Z,1.80
2019-01-14T19:54:14.476Z,2.30
2019-01-14T19:56:43.369Z,1.93
2019-01-14T19:59:12.139Z,1.70
2019-01-14T20:01:40.927Z,1.77
2019-01-14T20:04:09.429Z,1.93
2019-01-14T20:06:38.276Z,2.10
2019-01-14T20:09:12.444Z,1.47
2019-01-14T20:11:41.247Z,1.60
2019-01-14T20:14:10.058Z,1.40
2019-01-14T20:16:38.779Z,2.00
2019-01-14T20:19:07.497Z,2.07
2019-01-14T20:21:36.065Z,2.43
2019-01-14T20:24:05.186Z,1.87
2019-01-14T20:26:33.646Z,1.90
2019-01-14T20:29:02.088Z,1.80
2019-01-14T20:31:30.969Z,1.90
2019-01-14T20:33:59.838Z,2.37
2019-01-14T20:36:28.742Z,2.33
2019-01-14T20:38:58.710Z,2.43
2019-01-14T20:41:27.795Z,2.20
2019-01-14T20:44:05.181Z,2.00
2019-01-14T20:46:29.996Z,2.30
2019-01-14T20:48:58.438Z,2.10
2019-01-14T20:51:26.860Z,2.43
2019-01-14T20:53:55.279Z,2.10
2019-01-14T20:56:23.709Z,2.17
2019-01-14T20:58:52.169Z,1.93
2019-01-14T21:01:20.573Z,4.07
2019-01-14T21:03:49.053Z,2.70
2019-01-14T21:06:17.489Z,2.53
2019-01-14T21:08:45.942Z,2.17
2019-01-14T21:11:14.350Z,2.43
2019-01-14T21:13:42.826Z,2.23
2019-01-14T21:16:11.326Z,2.00
2019-01-14T21:18:39.821Z,2.37
2019-01-14T21:21:08.261Z,2.20
2019-01-14T21:23:36.688Z,2.40
2019-01-14T21:26:05.309Z,2.23
2019-01-14T21:28:33.765Z,2.13
2019-01-14T21:31:02.205Z,2.30
2019-01-14T21:33:30.721Z,2.57
2019-01-14T21:35:59.138Z,2.90
2019-01-14T21:38:27.552Z,3.23
2019-01-14T21:40:55.995Z,2.47
2019-01-14T21:43:24.444Z,2.30
2019-01-14T21:45:52.851Z,2.67
2019-01-14T21:48:21.304Z,3.00
2019-01-14T21:50:49.752Z,3.47
2019-01-14T21:53:18.499Z,3.80
2019-01-14T21:55:47.031Z,3.33
2019-01-14T21:58:15.482Z,3.10
2019-01-14T22:00:43.893Z,2.90
2019-01-14T22:03:12.336Z,3.30
2019-01-14T22:05:40.776Z,2.77
2019-01-14T22:08:09.207Z,3.07
2019-01-14T22:10:37.618Z,2.87
2019-01-14T22:13:06.053Z,2.73
2019-01-14T22:15:34.467Z,3.20
2019-01-14T22:18:02.906Z,2.40
2019-01-14T22:20:31.325Z,3.20
2019-01-14T22:22:59.838Z,2.73
2019-01-14T22:25:28.253Z,3.30
2019-01-14T22:27:56.742Z,3.23
2019-01-14T22:30:27.525Z,3.53
2019-01-14T22:32:55.941Z,4.00
2019-01-14T22:35:24.399Z,3.60
2019-01-14T22:37:52.871Z,3.33
2019-01-14T22:40:21.362Z,4.50
2019-01-14T22:42:55.532Z,3.73
2019-01-14T22:45:23.963Z,4.10
2019-01-14T22:47:52.378Z,3.83
2019-01-14T22:50:20.948Z,3.93
2019-01-14T22:52:49.372Z,3.10
2019-01-14T22:55:17.869Z,3.63
2019-01-14T22:57:46.292Z,3.27
2019-01-14T23:00:28.276Z,3.40
2019-01-14T23:02:56.828Z,3.37
2019-01-14T23:05:25.353Z,3.00
2019-01-14T23:07:53.768Z,2.50
2019-01-14T23:10:22.182Z,2.50
2019-01-14T23:12:50.649Z,2.93
2019-01-14T23:15:19.057Z,2.67
2019-01-14T23:17:47.468Z,2.90
2019-01-14T23:20:15.908Z,2.63
2019-01-14T23:22:44.321Z,2.80
2019-01-14T23:25:12.752Z,2.60
2019-01-14T23:27:41.191Z,2.50
2019-01-14T23:30:11.352Z,1.90
2019-01-14T23:32:39.782Z,1.90
2019-01-14T23:35:08.563Z,2.20
2019-01-14T23:37:36.988Z,2.40
2019-01-14T23:40:09.449Z,2.20
2019-01-14T23:42:37.875Z,2.03
2019-01-14T23:45:08.839Z,2.13
2019-01-14T23:47:37.280Z,1.77
2019-01-14T23:50:09.317Z,1.97
2019-01-14T23:52:37.725Z,2.03
2019-01-14T23:55:06.691Z,2.27
2019-01-14T23:57:35.127Z,2.27
